createdAt,value
2022-08-02T00:02:17.563Z,99.90
2022-08-02T00:07:09.720Z,99.90
2022-08-02T00:12:01.843Z,99.90
2022-08-02T00:16:54.062Z,99.90
2022-08-02T00:21:46.390Z,99.90
2022-08-02T00:26:38.609Z,99.90
2022-08-02T00:31:30.948Z,99.90
2022-08-02T00:36:23.068Z,99.90
2022-08-02T00:41:18.892Z,99.90
2022-08-02T00:46:11.795Z,99.90
2022-08-02T00:51:04.677Z,99.90
2022-08-02T00:55:56.876Z,99.90
2022-08-02T01:00:50.297Z,99.90
2022-08-02T01:06:10.318Z,99.90
2022-08-02T01:10:56.631Z,99.90
2022-08-02T01:15:58.326Z,99.90
2022-08-02T01:21:08.802Z,99.90
2022-08-02T01:26:19.416Z,99.90
2022-08-02T01:31:20.071Z,99.90
2022-08-02T01:36:14.242Z,99.90
2022-08-02T01:41:10.891Z,99.90
2022-08-02T01:46:05.769Z,99.90
2022-08-02T01:50:59.220Z,99.90
2022-08-02T01:55:56.992Z,99.90
2022-08-02T02:00:53.942Z,99.90
2022-08-02T02:05:49.741Z,99.90
2022-08-02T02:10:44.961Z,99.90
2022-08-02T02:15:41.481Z,99.90
2022-08-02T02:20:33.973Z,99.90
2022-08-02T02:25:36.111Z,99.90
2022-08-02T02:30:35.519Z,99.90
2022-08-02T02:35:37.443Z,99.90
2022-08-02T02:40:31.164Z,99.90
2022-08-02T02:45:25.470Z,99.90
2022-08-02T02:50:18.805Z,99.90
2022-08-02T02:55:12.269Z,99.90
2022-08-02T03:00:11.982Z,99.90
2022-08-02T03:05:05.452Z,99.90
2022-08-02T03:09:57.604Z,99.90
2022-08-02T03:14:49.868Z,99.90
2022-08-02T03:19:42.062Z,99.90
2022-08-02T03:24:34.129Z,99.90
2022-08-02T03:29:26.367Z,99.90
2022-08-02T03:34:18.805Z,99.90
2022-08-02T03:39:12.901Z,99.90
2022-08-02T03:44:06.872Z,99.90
2022-08-02T03:48:59.049Z,99.90
2022-08-02T03:53:52.006Z,99.90
2022-08-02T03:58:48.635Z,99.90
2022-08-02T04:03:41.369Z,99.90
2022-08-02T04:08:38.055Z,99.90
2022-08-02T04:13:35.824Z,99.90
2022-08-02T04:18:34.827Z,99.90
2022-08-02T04:23:27.693Z,99.90
2022-08-02T04:28:27.748Z,99.90
2022-08-02T04:33:21.384Z,99.90
2022-08-02T04:38:14.923Z,99.90
2022-08-02T04:43:07.539Z,99.90
2022-08-02T04:48:05.009Z,99.90
2022-08-02T04:52:57.971Z,99.90
2022-08-02T04:57:58.000Z,99.90
2022-08-02T05:02:51.861Z,99.90
2022-08-02T05:07:44.111Z,99.90
2022-08-02T05:12:38.322Z,99.90
2022-08-02T05:17:30.393Z,99.90
2022-08-02T05:22:23.036Z,99.90
2022-08-02T05:27:17.259Z,99.90
2022-08-02T05:32:14.101Z,99.90
2022-08-02T05:37:09.696Z,99.90
2022-08-02T05:42:02.288Z,99.90
2022-08-02T05:46:54.336Z,99.90
2022-08-02T05:51:59.473Z,99.90
2022-08-02T05:57:05.000Z,92.30
2022-08-02T06:02:02.490Z,90.20
2022-08-02T06:07:02.169Z,93.90
2022-08-02T06:12:01.699Z,85.10
2022-08-02T06:16:56.160Z,67.50
2022-08-02T06:22:32.695Z,58.90
2022-08-02T06:27:03.154Z,55.40
2022-08-02T06:31:55.745Z,53.80
2022-08-02T06:37:05.835Z,51.80
2022-08-02T06:42:02.996Z,52.70
2022-08-02T06:47:11.090Z,50.80
2022-08-02T06:52:06.238Z,53.20
2022-08-02T06:56:58.759Z,56.50
2022-08-02T07:01:51.937Z,54.90
2022-08-02T07:06:45.604Z,50.90
2022-08-02T07:11:39.133Z,48.50
2022-08-02T07:16:32.734Z,49.30
2022-08-02T07:21:57.071Z,48.70
2022-08-02T07:26:55.245Z,48.40
2022-08-02T07:31:53.295Z,47.80
2022-08-02T07:36:46.774Z,48.60
2022-08-02T07:41:42.610Z,47.30
2022-08-02T07:46:35.724Z,46.30
2022-08-02T07:51:29.237Z,44.90
2022-08-02T07:56:21.718Z,46.00
2022-08-02T08:01:15.378Z,46.10
2022-08-02T08:06:07.725Z,44.90
2022-08-02T08:10:59.817Z,44.10
2022-08-02T08:15:52.745Z,44.70
2022-08-02T08:20:44.989Z,45.20
2022-08-02T08:25:39.917Z,45.40
2022-08-02T08:30:33.744Z,45.10
2022-08-02T08:35:29.632Z,44.30
2022-08-02T08:40:25.322Z,44.10
2022-08-02T08:45:18.227Z,43.40
2022-08-02T08:50:18.966Z,43.40
2022-08-02T08:55:15.091Z,43.50
2022-08-02T09:00:08.119Z,43.00
2022-08-02T09:05:01.134Z,43.90
2022-08-02T09:09:53.762Z,45.00
2022-08-02T09:14:50.190Z,47.10
2022-08-02T09:19:46.057Z,48.50
2022-08-02T09:24:51.496Z,45.70
2022-08-02T09:30:14.191Z,43.20
2022-08-02T09:35:02.082Z,42.10
2022-08-02T09:39:59.757Z,41.90
2022-08-02T09:45:02.273Z,40.40
2022-08-02T09:49:55.820Z,40.50
2022-08-02T09:54:48.169Z,40.40
2022-08-02T09:59:53.540Z,39.00
2022-08-02T10:04:52.306Z,40.60
2022-08-02T10:09:48.621Z,39.80
2022-08-02T10:14:45.068Z,39.00
2022-08-02T10:20:02.754Z,38.70
2022-08-02T10:24:52.829Z,38.30
2022-08-02T10:29:55.008Z,39.50
2022-08-02T10:34:57.591Z,39.70
2022-08-02T10:39:59.160Z,39.70
2022-08-02T10:45:10.354Z,39.10
2022-08-02T10:50:06.222Z,39.80
2022-08-02T10:55:01.115Z,42.10
2022-08-02T10:59:57.765Z,40.90
2022-08-02T11:04:50.109Z,39.20
2022-08-02T11:09:44.038Z,39.60
2022-08-02T11:14:51.185Z,40.00
2022-08-02T11:20:16.150Z,39.80
2022-08-02T11:25:29.686Z,40.00
2022-08-02T11:30:28.453Z,40.90
2022-08-02T11:35:24.261Z,43.30
2022-08-02T11:40:20.078Z,44.00
2022-08-02T11:45:21.067Z,44.60
2022-08-02T11:50:15.087Z,47.40
2022-08-02T11:55:09.121Z,49.50
2022-08-02T12:00:01.370Z,50.40
2022-08-02T12:04:58.487Z,51.30
2022-08-02T12:09:50.774Z,51.60
2022-08-02T12:14:44.359Z,54.00
2022-08-02T12:19:38.946Z,54.70
2022-08-02T12:24:31.124Z,53.40
2022-08-02T12:29:55.968Z,53.80
2022-08-02T12:35:01.975Z,53.30
2022-08-02T12:39:54.205Z,54.10
2022-08-02T12:44:59.723Z,53.80
2022-08-02T12:50:11.657Z,53.40
2022-08-02T12:56:02.509Z,53.00
2022-08-02T13:00:40.158Z,54.10
2022-08-02T13:05:56.883Z,53.00
2022-08-02T13:10:48.620Z,53.60
2022-08-02T13:15:46.640Z,53.70
2022-08-02T13:20:45.551Z,53.30
2022-08-02T13:25:38.088Z,54.30
2022-08-02T13:30:30.089Z,53.80
2022-08-02T13:35:22.245Z,52.80
2022-08-02T13:40:22.723Z,53.60
2022-08-02T13:45:15.283Z,54.40
2022-08-02T13:50:08.096Z,54.30
2022-08-02T13:55:00.291Z,54.70
2022-08-02T13:59:56.223Z,54.30
2022-08-02T14:04:50.853Z,54.00
2022-08-02T14:09:43.791Z,54.30
2022-08-02T14:14:36.385Z,54.60
2022-08-02T14:19:28.954Z,55.50
2022-08-02T14:24:23.818Z,55.00
2022-08-02T14:29:17.129Z,54.00
2022-08-02T14:34:09.291Z,53.80
2022-08-02T14:39:02.054Z,54.00
2022-08-02T14:44:06.293Z,53.70
2022-08-02T14:49:01.903Z,53.40
2022-08-02T14:54:03.093Z,53.40
2022-08-02T14:58:55.751Z,53.60
2022-08-02T15:03:47.974Z,53.90
2022-08-02T15:08:40.162Z,54.20
2022-08-02T15:13:39.253Z,53.90
2022-08-02T15:18:34.691Z,54.10
2022-08-02T15:23:37.229Z,54.70
2022-08-02T15:28:31.597Z,54.30
2022-08-02T15:33:23.837Z,54.50
2022-08-02T15:38:16.285Z,55.10
2022-08-02T15:43:08.907Z,55.40
2022-08-02T15:48:01.213Z,55.60
2022-08-02T15:52:55.778Z,56.00
2022-08-02T15:57:48.009Z,55.70
2022-08-02T16:02:40.173Z,56.10
2022-08-02T16:07:32.354Z,56.00
2022-08-02T16:12:32.468Z,56.10
2022-08-02T16:17:49.468Z,56.10
2022-08-02T16:22:38.817Z,56.30
2022-08-02T16:27:30.923Z,56.40
2022-08-02T16:32:23.066Z,56.70
2022-08-02T16:37:15.573Z,56.70
2022-08-02T16:42:07.954Z,56.80
2022-08-02T16:47:00.872Z,57.30
2022-08-02T16:51:54.185Z,57.50
2022-08-02T16:56:46.337Z,57.10
2022-08-02T17:02:02.941Z,57.60
2022-08-02T17:06:52.101Z,57.80
2022-08-02T17:11:46.649Z,58.00
2022-08-02T17:16:39.123Z,57.90
2022-08-02T17:21:34.210Z,58.90
2022-08-02T17:26:26.507Z,58.30
2022-08-02T17:31:20.822Z,58.60
2022-08-02T17:36:21.679Z,59.30
2022-08-02T17:41:15.338Z,59.20
2022-08-02T17:46:08.019Z,59.80
2022-08-02T17:51:00.096Z,60.50
2022-08-02T17:55:52.616Z,60.90
2022-08-02T18:00:54.226Z,61.30
2022-08-02T18:05:53.711Z,62.80
2022-08-02T18:10:47.888Z,62.30
2022-08-02T18:15:40.008Z,63.00
2022-08-02T18:20:32.485Z,62.90
2022-08-02T18:25:37.389Z,63.10
2022-08-02T18:30:36.255Z,63.70
2022-08-02T18:35:29.433Z,64.70
2022-08-02T18:40:21.711Z,64.20
2022-08-02T18:45:19.424Z,64.70
2022-08-02T18:50:12.734Z,65.80
2022-08-02T18:55:17.021Z,66.50
2022-08-02T19:00:13.411Z,67.70
2022-08-02T19:05:07.000Z,68.80
2022-08-02T19:09:59.296Z,68.80
2022-08-02T19:14:51.818Z,68.20
2022-08-02T19:19:44.595Z,68.60
2022-08-02T19:24:39.725Z,69.20
2022-08-02T19:29:43.377Z,69.30
2022-08-02T19:34:41.614Z,69.60
2022-08-02T19:39:39.353Z,69.50
2022-08-02T19:44:31.931Z,69.40
2022-08-02T19:49:40.147Z,69.70
2022-08-02T19:54:54.371Z,69.60
2022-08-02T19:59:45.087Z,70.20
2022-08-02T20:04:38.574Z,71.00
2022-08-02T20:09:33.465Z,71.60
2022-08-02T20:14:39.405Z,72.20
2022-08-02T20:19:46.356Z,73.00
2022-08-02T20:24:40.125Z,74.20
2022-08-02T20:29:42.998Z,75.00
2022-08-02T20:34:37.531Z,76.10
2022-08-02T20:39:43.073Z,77.50
2022-08-02T20:44:36.216Z,77.80
2022-08-02T20:49:41.085Z,78.40
2022-08-02T20:54:34.010Z,78.20
2022-08-02T20:59:27.714Z,77.00
2022-08-02T21:04:21.097Z,78.00
2022-08-02T21:09:13.808Z,78.80
2022-08-02T21:14:08.805Z,78.60
2022-08-02T21:19:01.334Z,78.60
2022-08-02T21:24:03.144Z,79.60
2022-08-02T21:28:55.356Z,80.40
2022-08-02T21:33:58.864Z,81.60
2022-08-02T21:38:58.377Z,81.70
2022-08-02T21:43:50.549Z,82.20
2022-08-02T21:48:43.142Z,83.20
2022-08-02T21:53:42.247Z,83.60
2022-08-02T21:58:35.118Z,84.00
2022-08-02T22:03:29.618Z,85.50
2022-08-02T22:08:21.838Z,86.40
2022-08-02T22:13:15.993Z,88.40
2022-08-02T22:18:14.583Z,90.50
2022-08-02T22:23:22.727Z,91.90
2022-08-02T22:28:38.404Z,93.80
2022-08-02T22:34:06.023Z,95.60
2022-08-02T22:39:19.405Z,99.10
2022-08-02T22:44:15.151Z,99.90
2022-08-02T22:49:37.051Z,99.90
2022-08-02T22:54:22.979Z,99.90
2022-08-02T23:04:11.935Z,99.90
2022-08-02T23:09:04.397Z,99.90
2022-08-02T23:13:56.554Z,99.90
2022-08-02T23:19:07.182Z,99.90
2022-08-02T23:24:00.005Z,99.90
2022-08-02T23:28:52.160Z,99.90
2022-08-02T23:34:03.587Z,99.90
2022-08-02T23:38:57.558Z,99.90
2022-08-02T23:44:11.399Z,99.90
2022-08-02T23:49:01.995Z,99.90
2022-08-02T23:53:54.165Z,99.90
2022-08-02T23:58:46.484Z,99.90
